sensor_id;sensor_type;location;lat;lon;timestamp;P1;durP1;ratioP1;P2;durP2;ratioP2
77984;SDS011;67177;47.240;-1.546;2023-04-01T00:01:10;17.47;;;2.70;;
77984;SDS011;67177;47.240;-1.546;2023-04-01T00:03:38;19.60;;;3.72;;
77984;SDS011;67177;47.240;-1.546;2023-04-01T00:06:04;19.10;;;3.15;;
77984;SDS011;67177;47.240;-1.546;2023-04-01T00:08:30;22.23;;;3.47;;
77984;SDS011;67177;47.240;-1.546;2023-04-01T00:10:56;25.05;;;3.17;;
77984;SDS011;67177;47.240;-1.546;2023-04-01T00:13:23;19.40;;;2.38;;
77984;SDS011;67177;47.240;-1.546;2023-04-01T00:15:51;17.53;;;3.10;;
77984;SDS011;67177;47.240;-1.546;2023-04-01T00:18:17;14.95;;;2.65;;
77984;SDS011;67177;47.240;-1.546;2023-04-01T00:20:44;18.08;;;2.50;;
77984;SDS011;67177;47.240;-1.546;2023-04-01T00:23:10;16.38;;;2.60;;
77984;SDS011;67177;47.240;-1.546;2023-04-01T00:25:36;23.60;;;3.37;;
77984;SDS011;67177;47.240;-1.546;2023-04-01T00:28:02;14.68;;;2.55;;
77984;SDS011;67177;47.240;-1.546;2023-04-01T00:30:27;21.43;;;2.63;;
77984;SDS011;67177;47.240;-1.546;2023-04-01T00:32:53;25.05;;;3.22;;
77984;SDS011;67177;47.240;-1.546;2023-04-01T00:35:19;26.02;;;3.55;;
77984;SDS011;67177;47.240;-1.546;2023-04-01T00:37:45;25.98;;;3.30;;
77984;SDS011;67177;47.240;-1.546;2023-04-01T00:40:21;20.03;;;3.67;;
77984;SDS011;67177;47.240;-1.546;2023-04-01T00:42:50;25.83;;;3.97;;
77984;SDS011;67177;47.240;-1.546;2023-04-01T00:47:54;21.38;;;2.85;;
77984;SDS011;67177;47.240;-1.546;2023-04-01T00:50:22;17.45;;;2.83;;
77984;SDS011;67177;47.240;-1.546;2023-04-01T00:52:50;17.85;;;3.10;;
77984;SDS011;67177;47.240;-1.546;2023-04-01T00:55:16;21.17;;;3.60;;
77984;SDS011;67177;47.240;-1.546;2023-04-01T00:57:44;20.17;;;3.30;;
77984;SDS011;67177;47.240;-1.546;2023-04-01T01:00:11;20.75;;;2.92;;
77984;SDS011;67177;47.240;-1.546;2023-04-01T01:02:41;20.40;;;3.47;;
77984;SDS011;67177;47.240;-1.546;2023-04-01T01:05:07;18.92;;;3.30;;
77984;SDS011;67177;47.240;-1.546;2023-04-01T01:10:15;17.90;;;2.55;;
77984;SDS011;67177;47.240;-1.546;2023-04-01T01:12:56;18.23;;;2.85;;
77984;SDS011;67177;47.240;-1.546;2023-04-01T01:15:46;17.17;;;2.70;;
77984;SDS011;67177;47.240;-1.546;2023-04-01T01:23:36;17.30;;;2.60;;
77984;SDS011;67177;47.240;-1.546;2023-04-01T01:26:14;13.93;;;2.30;;
77984;SDS011;67177;47.240;-1.546;2023-04-01T01:31:37;18.42;;;2.70;;
77984;SDS011;67177;47.240;-1.546;2023-04-01T01:34:29;18.73;;;2.50;;
77984;SDS011;67177;47.240;-1.546;2023-04-01T01:36:58;17.52;;;2.45;;
77984;SDS011;67177;47.240;-1.546;2023-04-01T01:39:28;12.68;;;2.38;;
77984;SDS011;67177;47.240;-1.546;2023-04-01T01:41:57;18.85;;;2.40;;
77984;SDS011;67177;47.240;-1.546;2023-04-01T01:44:26;13.15;;;2.15;;
77984;SDS011;67177;47.240;-1.546;2023-04-01T01:46:55;16.00;;;2.00;;
77984;SDS011;67177;47.240;-1.546;2023-04-01T01:49:21;18.08;;;3.08;;
77984;SDS011;67177;47.240;-1.546;2023-04-01T01:51:48;12.93;;;2.28;;
77984;SDS011;67177;47.240;-1.546;2023-04-01T01:54:15;14.23;;;3.00;;
77984;SDS011;67177;47.240;-1.546;2023-04-01T01:56:43;26.45;;;3.22;;
77984;SDS011;67177;47.240;-1.546;2023-04-01T01:59:11;15.13;;;2.40;;
77984;SDS011;67177;47.240;-1.546;2023-04-01T02:01:41;22.58;;;3.13;;
77984;SDS011;67177;47.240;-1.546;2023-04-01T02:04:10;17.70;;;2.78;;
77984;SDS011;67177;47.240;-1.546;2023-04-01T02:06:39;15.25;;;2.65;;
77984;SDS011;67177;47.240;-1.546;2023-04-01T02:09:11;15.88;;;2.58;;
77984;SDS011;67177;47.240;-1.546;2023-04-01T02:14:10;19.17;;;2.63;;
77984;SDS011;67177;47.240;-1.546;2023-04-01T02:16:43;20.52;;;3.33;;
77984;SDS011;67177;47.240;-1.546;2023-04-01T02:19:20;21.98;;;2.97;;
77984;SDS011;67177;47.240;-1.546;2023-04-01T02:21:52;21.35;;;2.78;;
77984;SDS011;67177;47.240;-1.546;2023-04-01T02:24:22;15.97;;;2.47;;
77984;SDS011;67177;47.240;-1.546;2023-04-01T02:26:51;21.48;;;3.28;;
77984;SDS011;67177;47.240;-1.546;2023-04-01T02:29:21;21.15;;;3.47;;
77984;SDS011;67177;47.240;-1.546;2023-04-01T02:31:48;23.38;;;3.67;;
77984;SDS011;67177;47.240;-1.546;2023-04-01T02:34:15;25.63;;;3.35;;
77984;SDS011;67177;47.240;-1.546;2023-04-01T02:36:41;20.73;;;3.07;;
77984;SDS011;67177;47.240;-1.546;2023-04-01T02:39:07;19.63;;;3.00;;
77984;SDS011;67177;47.240;-1.546;2023-04-01T02:41:41;19.40;;;3.10;;
77984;SDS011;67177;47.240;-1.546;2023-04-01T02:44:08;14.82;;;2.53;;
77984;SDS011;67177;47.240;-1.546;2023-04-01T02:46:35;13.80;;;2.20;;
77984;SDS011;67177;47.240;-1.546;2023-04-01T02:49:01;20.10;;;3.10;;
77984;SDS011;67177;47.240;-1.546;2023-04-01T02:51:27;21.80;;;3.22;;
77984;SDS011;67177;47.240;-1.546;2023-04-01T02:53:52;18.43;;;2.70;;
77984;SDS011;67177;47.240;-1.546;2023-04-01T02:56:18;23.02;;;3.20;;
77984;SDS011;67177;47.240;-1.546;2023-04-01T02:58:45;15.68;;;2.70;;
77984;SDS011;67177;47.240;-1.546;2023-04-01T03:01:11;14.77;;;2.30;;
77984;SDS011;67177;47.240;-1.546;2023-04-01T03:03:37;15.98;;;2.08;;
77984;SDS011;67177;47.240;-1.546;2023-04-01T03:06:09;14.38;;;2.67;;
77984;SDS011;67177;47.240;-1.546;2023-04-01T03:08:36;21.60;;;2.90;;
77984;SDS011;67177;47.240;-1.546;2023-04-01T03:11:02;18.83;;;2.72;;
77984;SDS011;67177;47.240;-1.546;2023-04-01T03:13:28;18.48;;;2.65;;
77984;SDS011;67177;47.240;-1.546;2023-04-01T03:15:54;20.90;;;2.77;;
77984;SDS011;67177;47.240;-1.546;2023-04-01T03:18:20;19.17;;;2.90;;
77984;SDS011;67177;47.240;-1.546;2023-04-01T03:20:46;14.95;;;2.63;;
77984;SDS011;67177;47.240;-1.546;2023-04-01T03:23:12;12.67;;;2.13;;
77984;SDS011;67177;47.240;-1.546;2023-04-01T03:25:38;15.77;;;2.38;;
77984;SDS011;67177;47.240;-1.546;2023-04-01T03:28:04;13.17;;;2.20;;
77984;SDS011;67177;47.240;-1.546;2023-04-01T03:30:29;17.00;;;1.90;;
77984;SDS011;67177;47.240;-1.546;2023-04-01T03:32:56;11.10;;;1.75;;
77984;SDS011;67177;47.240;-1.546;2023-04-01T03:35:24;17.48;;;2.63;;
77984;SDS011;67177;47.240;-1.546;2023-04-01T03:37:50;11.97;;;2.43;;
77984;SDS011;67177;47.240;-1.546;2023-04-01T03:40:16;13.02;;;2.10;;
77984;SDS011;67177;47.240;-1.546;2023-04-01T03:42:42;12.43;;;2.45;;
77984;SDS011;67177;47.240;-1.546;2023-04-01T03:45:07;17.08;;;2.15;;
77984;SDS011;67177;47.240;-1.546;2023-04-01T03:47:34;13.93;;;1.73;;
77984;SDS011;67177;47.240;-1.546;2023-04-01T03:50:00;13.73;;;2.17;;
77984;SDS011;67177;47.240;-1.546;2023-04-01T03:52:26;14.30;;;1.98;;
77984;SDS011;67177;47.240;-1.546;2023-04-01T03:54:51;8.77;;;1.60;;
77984;SDS011;67177;47.240;-1.546;2023-04-01T03:57:17;12.40;;;1.80;;
77984;SDS011;67177;47.240;-1.546;2023-04-01T03:59:43;12.87;;;1.80;;
77984;SDS011;67177;47.240;-1.546;2023-04-01T04:02:08;12.65;;;1.70;;
77984;SDS011;67177;47.240;-1.546;2023-04-01T04:04:34;13.30;;;2.13;;
77984;SDS011;67177;47.240;-1.546;2023-04-01T04:07:00;13.40;;;1.80;;
77984;SDS011;67177;47.240;-1.546;2023-04-01T04:09:26;13.80;;;2.22;;
77984;SDS011;67177;47.240;-1.546;2023-04-01T04:11:52;14.02;;;1.83;;
77984;SDS011;67177;47.240;-1.546;2023-04-01T04:14:17;13.40;;;2.00;;
77984;SDS011;67177;47.240;-1.546;2023-04-01T04:16:43;17.38;;;2.38;;
77984;SDS011;67177;47.240;-1.546;2023-04-01T04:19:09;16.38;;;2.08;;
77984;SDS011;67177;47.240;-1.546;2023-04-01T04:21:35;14.85;;;2.05;;
77984;SDS011;67177;47.240;-1.546;2023-04-01T04:24:00;11.27;;;2.10;;
77984;SDS011;67177;47.240;-1.546;2023-04-01T04:26:26;10.18;;;1.60;;
77984;SDS011;67177;47.240;-1.546;2023-04-01T04:28:53;11.15;;;1.80;;
77984;SDS011;67177;47.240;-1.546;2023-04-01T04:31:20;12.32;;;1.70;;
77984;SDS011;67177;47.240;-1.546;2023-04-01T04:33:47;12.93;;;2.10;;
77984;SDS011;67177;47.240;-1.546;2023-04-01T04:36:13;16.73;;;3.03;;
77984;SDS011;67177;47.240;-1.546;2023-04-01T04:38:39;10.15;;;1.95;;
77984;SDS011;67177;47.240;-1.546;2023-04-01T04:41:11;13.63;;;2.30;;
77984;SDS011;67177;47.240;-1.546;2023-04-01T04:43:39;14.20;;;2.10;;
77984;SDS011;67177;47.240;-1.546;2023-04-01T04:46:06;9.20;;;2.00;;
77984;SDS011;67177;47.240;-1.546;2023-04-01T04:48:36;16.25;;;2.40;;
77984;SDS011;67177;47.240;-1.546;2023-04-01T04:51:02;16.92;;;2.65;;
77984;SDS011;67177;47.240;-1.546;2023-04-01T04:53:28;15.03;;;2.70;;
77984;SDS011;67177;47.240;-1.546;2023-04-01T04:55:54;17.02;;;2.28;;
77984;SDS011;67177;47.240;-1.546;2023-04-01T04:58:20;18.90;;;2.60;;
77984;SDS011;67177;47.240;-1.546;2023-04-01T05:00:46;17.17;;;2.37;;
77984;SDS011;67177;47.240;-1.546;2023-04-01T05:03:12;14.50;;;2.60;;
77984;SDS011;67177;47.240;-1.546;2023-04-01T05:05:38;14.77;;;2.38;;
77984;SDS011;67177;47.240;-1.546;2023-04-01T05:08:04;11.98;;;2.00;;
77984;SDS011;67177;47.240;-1.546;2023-04-01T05:10:30;16.03;;;2.27;;
77984;SDS011;67177;47.240;-1.546;2023-04-01T05:12:56;16.02;;;2.20;;
77984;SDS011;67177;47.240;-1.546;2023-04-01T05:15:22;12.07;;;1.70;;
77984;SDS011;67177;47.240;-1.546;2023-04-01T05:17:49;13.00;;;1.92;;
77984;SDS011;67177;47.240;-1.546;2023-04-01T05:20:15;16.60;;;1.97;;
77984;SDS011;67177;47.240;-1.546;2023-04-01T05:22:42;10.50;;;1.80;;
77984;SDS011;67177;47.240;-1.546;2023-04-01T05:25:08;15.05;;;2.10;;
77984;SDS011;67177;47.240;-1.546;2023-04-01T05:27:34;11.10;;;1.53;;
77984;SDS011;67177;47.240;-1.546;2023-04-01T05:30:00;12.00;;;2.38;;
77984;SDS011;67177;47.240;-1.546;2023-04-01T05:32:26;9.90;;;1.65;;
77984;SDS011;67177;47.240;-1.546;2023-04-01T05:34:51;11.50;;;2.27;;
77984;SDS011;67177;47.240;-1.546;2023-04-01T05:37:17;12.52;;;3.30;;
77984;SDS011;67177;47.240;-1.546;2023-04-01T05:39:43;11.57;;;4.00;;
77984;SDS011;67177;47.240;-1.546;2023-04-01T05:42:09;10.07;;;2.80;;
77984;SDS011;67177;47.240;-1.546;2023-04-01T05:44:35;10.60;;;2.80;;
77984;SDS011;67177;47.240;-1.546;2023-04-01T05:47:01;15.10;;;3.00;;
77984;SDS011;67177;47.240;-1.546;2023-04-01T05:49:27;10.52;;;2.30;;
77984;SDS011;67177;47.240;-1.546;2023-04-01T05:51:53;13.73;;;2.45;;
77984;SDS011;67177;47.240;-1.546;2023-04-01T05:54:19;14.38;;;2.25;;
77984;SDS011;67177;47.240;-1.546;2023-04-01T05:56:45;13.73;;;1.80;;
77984;SDS011;67177;47.240;-1.546;2023-04-01T05:59:11;9.50;;;1.87;;
77984;SDS011;67177;47.240;-1.546;2023-04-01T06:01:37;10.45;;;2.30;;
77984;SDS011;67177;47.240;-1.546;2023-04-01T06:04:03;10.40;;;2.38;;
77984;SDS011;67177;47.240;-1.546;2023-04-01T06:06:30;14.00;;;2.53;;
77984;SDS011;67177;47.240;-1.546;2023-04-01T06:09:07;12.05;;;2.20;;
77984;SDS011;67177;47.240;-1.546;2023-04-01T06:11:48;13.85;;;2.70;;
77984;SDS011;67177;47.240;-1.546;2023-04-01T06:14:23;10.48;;;1.88;;
77984;SDS011;67177;47.240;-1.546;2023-04-01T06:22:29;10.82;;;2.10;;
77984;SDS011;67177;47.240;-1.546;2023-04-01T06:28:17;10.68;;;2.13;;
77984;SDS011;67177;47.240;-1.546;2023-04-01T06:31:17;11.15;;;1.77;;
77984;SDS011;67177;47.240;-1.546;2023-04-01T06:37:01;10.57;;;1.48;;
77984;SDS011;67177;47.240;-1.546;2023-04-01T06:51:00;9.88;;;1.60;;
77984;SDS011;67177;47.240;-1.546;2023-04-01T06:56:05;10.00;;;1.58;;
77984;SDS011;67177;47.240;-1.546;2023-04-01T06:58:42;13.38;;;1.70;;
77984;SDS011;67177;47.240;-1.546;2023-04-01T07:01:29;9.77;;;1.23;;
77984;SDS011;67177;47.240;-1.546;2023-04-01T07:04:02;9.15;;;1.13;;
77984;SDS011;67177;47.240;-1.546;2023-04-01T07:09:22;9.63;;;1.60;;
77984;SDS011;67177;47.240;-1.546;2023-04-01T07:11:53;14.88;;;1.45;;
77984;SDS011;67177;47.240;-1.546;2023-04-01T07:14:27;10.07;;;1.43;;
77984;SDS011;67177;47.240;-1.546;2023-04-01T07:19:36;7.03;;;1.30;;
77984;SDS011;67177;47.240;-1.546;2023-04-01T07:22:29;10.90;;;1.80;;
77984;SDS011;67177;47.240;-1.546;2023-04-01T07:24:56;9.35;;;1.50;;
77984;SDS011;67177;47.240;-1.546;2023-04-01T07:27:26;10.87;;;1.80;;
77984;SDS011;67177;47.240;-1.546;2023-04-01T07:29:52;9.23;;;1.58;;
77984;SDS011;67177;47.240;-1.546;2023-04-01T07:37:22;10.15;;;1.48;;
77984;SDS011;67177;47.240;-1.546;2023-04-01T07:48:13;12.85;;;1.90;;
77984;SDS011;67177;47.240;-1.546;2023-04-01T07:53:52;8.95;;;1.65;;
77984;SDS011;67177;47.240;-1.546;2023-04-01T08:04:56;13.45;;;1.60;;
77984;SDS011;67177;47.240;-1.546;2023-04-01T08:07:49;11.57;;;1.75;;
77984;SDS011;67177;47.240;-1.546;2023-04-01T08:15:29;10.88;;;1.70;;
77984;SDS011;67177;47.240;-1.546;2023-04-01T08:20:53;11.73;;;2.20;;
77984;SDS011;67177;47.240;-1.546;2023-04-01T08:23:27;10.67;;;2.00;;
77984;SDS011;67177;47.240;-1.546;2023-04-01T08:28:35;8.45;;;1.55;;
77984;SDS011;67177;47.240;-1.546;2023-04-01T08:31:09;8.80;;;1.55;;
77984;SDS011;67177;47.240;-1.546;2023-04-01T08:33:39;13.45;;;2.28;;
77984;SDS011;67177;47.240;-1.546;2023-04-01T08:36:17;8.33;;;1.90;;
77984;SDS011;67177;47.240;-1.546;2023-04-01T08:49:56;13.97;;;1.97;;
77984;SDS011;67177;47.240;-1.546;2023-04-01T09:16:10;3.72;;;0.60;;
77984;SDS011;67177;47.240;-1.546;2023-04-01T09:21:45;2.75;;;0.65;;
77984;SDS011;67177;47.240;-1.546;2023-04-01T09:37:54;5.13;;;0.93;;
77984;SDS011;67177;47.240;-1.546;2023-04-01T09:54:16;3.78;;;0.68;;
77984;SDS011;67177;47.240;-1.546;2023-04-01T10:00:20;3.42;;;0.80;;
77984;SDS011;67177;47.240;-1.546;2023-04-01T10:10:42;4.00;;;0.60;;
77984;SDS011;67177;47.240;-1.546;2023-04-01T10:19:04;7.10;;;1.10;;
77984;SDS011;67177;47.240;-1.546;2023-04-01T10:27:11;5.22;;;0.95;;
77984;SDS011;67177;47.240;-1.546;2023-04-01T10:30:20;8.35;;;1.40;;
77984;SDS011;67177;47.240;-1.546;2023-04-01T10:54:25;6.93;;;1.08;;
77984;SDS011;67177;47.240;-1.546;2023-04-01T11:21:46;9.02;;;1.25;;
77984;SDS011;67177;47.240;-1.546;2023-04-01T11:30:12;6.18;;;1.30;;
77984;SDS011;67177;47.240;-1.546;2023-04-01T11:44:20;6.68;;;1.15;;
77984;SDS011;67177;47.240;-1.546;2023-04-01T12:03:46;6.63;;;1.02;;
77984;SDS011;67177;47.240;-1.546;2023-04-01T12:06:52;7.03;;;1.15;;
77984;SDS011;67177;47.240;-1.546;2023-04-01T12:10:13;3.85;;;1.00;;
77984;SDS011;67177;47.240;-1.546;2023-04-01T12:18:20;6.22;;;1.20;;
77984;SDS011;67177;47.240;-1.546;2023-04-01T12:34:45;10.00;;;1.38;;
77984;SDS011;67177;47.240;-1.546;2023-04-01T12:37:39;5.40;;;0.90;;
77984;SDS011;67177;47.240;-1.546;2023-04-01T13:10:27;7.77;;;1.43;;
77984;SDS011;67177;47.240;-1.546;2023-04-01T13:29:32;12.55;;;2.05;;
77984;SDS011;67177;47.240;-1.546;2023-04-01T13:32:09;9.05;;;1.75;;
77984;SDS011;67177;47.240;-1.546;2023-04-01T13:34:50;7.95;;;1.70;;
77984;SDS011;67177;47.240;-1.546;2023-04-01T13:40:10;10.75;;;1.80;;
77984;SDS011;67177;47.240;-1.546;2023-04-01T13:42:42;9.05;;;1.85;;
77984;SDS011;67177;47.240;-1.546;2023-04-01T14:01:54;7.70;;;1.40;;
77984;SDS011;67177;47.240;-1.546;2023-04-01T14:04:47;11.35;;;1.45;;
77984;SDS011;67177;47.240;-1.546;2023-04-01T14:12:56;7.18;;;1.17;;
77984;SDS011;67177;47.240;-1.546;2023-04-01T14:15:48;6.28;;;1.17;;
77984;SDS011;67177;47.240;-1.546;2023-04-01T14:18:19;4.18;;;0.90;;
77984;SDS011;67177;47.240;-1.546;2023-04-01T14:21:05;5.10;;;1.17;;
77984;SDS011;67177;47.240;-1.546;2023-04-01T14:26:29;5.20;;;1.10;;
77984;SDS011;67177;47.240;-1.546;2023-04-01T14:29:16;7.60;;;1.08;;
77984;SDS011;67177;47.240;-1.546;2023-04-01T14:48:48;7.17;;;1.00;;
77984;SDS011;67177;47.240;-1.546;2023-04-01T14:51:38;11.30;;;1.45;;
77984;SDS011;67177;47.240;-1.546;2023-04-01T14:59:39;9.15;;;1.55;;
77984;SDS011;67177;47.240;-1.546;2023-04-01T15:05:06;6.65;;;1.38;;
77984;SDS011;67177;47.240;-1.546;2023-04-01T15:13:21;7.47;;;1.40;;
77984;SDS011;67177;47.240;-1.546;2023-04-01T15:18:35;7.93;;;1.52;;
77984;SDS011;67177;47.240;-1.546;2023-04-01T15:21:40;8.90;;;1.55;;
77984;SDS011;67177;47.240;-1.546;2023-04-01T15:30:18;7.23;;;1.10;;
77984;SDS011;67177;47.240;-1.546;2023-04-01T15:45:58;4.10;;;0.90;;
77984;SDS011;67177;47.240;-1.546;2023-04-01T15:48:49;6.47;;;1.00;;
77984;SDS011;67177;47.240;-1.546;2023-04-01T16:02:18;7.45;;;1.30;;
77984;SDS011;67177;47.240;-1.546;2023-04-01T16:10:48;7.60;;;1.50;;
77984;SDS011;67177;47.240;-1.546;2023-04-01T16:13:23;7.80;;;1.30;;
77984;SDS011;67177;47.240;-1.546;2023-04-01T16:16:27;11.70;;;1.70;;
77984;SDS011;67177;47.240;-1.546;2023-04-01T16:22:20;7.38;;;1.27;;
77984;SDS011;67177;47.240;-1.546;2023-04-01T16:42:31;11.95;;;1.77;;
77984;SDS011;67177;47.240;-1.546;2023-04-01T16:44:31;10.73;;;2.33;;
77984;SDS011;67177;47.240;-1.546;2023-04-01T16:47:11;9.35;;;1.70;;
77984;SDS011;67177;47.240;-1.546;2023-04-01T16:49:40;12.75;;;1.80;;
77984;SDS011;67177;47.240;-1.546;2023-04-01T17:02:43;10.07;;;1.75;;
77984;SDS011;67177;47.240;-1.546;2023-04-01T17:05:17;9.43;;;1.67;;
77984;SDS011;67177;47.240;-1.546;2023-04-01T17:10:32;12.60;;;2.10;;
77984;SDS011;67177;47.240;-1.546;2023-04-01T17:15:39;11.13;;;2.03;;
77984;SDS011;67177;47.240;-1.546;2023-04-01T17:21:16;14.63;;;2.22;;
77984;SDS011;67177;47.240;-1.546;2023-04-01T17:24:02;13.20;;;2.20;;
77984;SDS011;67177;47.240;-1.546;2023-04-01T17:26:50;11.52;;;1.60;;
77984;SDS011;67177;47.240;-1.546;2023-04-01T17:35:22;9.55;;;1.67;;
77984;SDS011;67177;47.240;-1.546;2023-04-01T17:40:38;8.38;;;2.10;;
77984;SDS011;67177;47.240;-1.546;2023-04-01T17:46:24;9.38;;;1.52;;
77984;SDS011;67177;47.240;-1.546;2023-04-01T17:51:33;10.17;;;2.20;;
77984;SDS011;67177;47.240;-1.546;2023-04-01T18:11:29;13.55;;;1.60;;
77984;SDS011;67177;47.240;-1.546;2023-04-01T18:22:39;9.77;;;1.80;;
77984;SDS011;67177;47.240;-1.546;2023-04-01T18:27:38;11.20;;;2.45;;
77984;SDS011;67177;47.240;-1.546;2023-04-01T18:32:44;7.97;;;2.37;;
77984;SDS011;67177;47.240;-1.546;2023-04-01T18:35:27;9.10;;;1.98;;
77984;SDS011;67177;47.240;-1.546;2023-04-01T18:38:12;7.63;;;1.65;;
77984;SDS011;67177;47.240;-1.546;2023-04-01T18:43:26;9.32;;;2.00;;
77984;SDS011;67177;47.240;-1.546;2023-04-01T18:54:32;9.13;;;2.22;;
77984;SDS011;67177;47.240;-1.546;2023-04-01T18:57:10;9.82;;;2.97;;
77984;SDS011;67177;47.240;-1.546;2023-04-01T18:59:40;11.90;;;2.53;;
77984;SDS011;67177;47.240;-1.546;2023-04-01T19:15:35;12.38;;;2.10;;
77984;SDS011;67177;47.240;-1.546;2023-04-01T19:38:01;7.07;;;1.70;;
77984;SDS011;67177;47.240;-1.546;2023-04-01T19:46:18;12.45;;;2.10;;
77984;SDS011;67177;47.240;-1.546;2023-04-01T19:49:16;10.00;;;1.73;;
77984;SDS011;67177;47.240;-1.546;2023-04-01T19:57:13;8.27;;;1.50;;
77984;SDS011;67177;47.240;-1.546;2023-04-01T20:05:02;9.95;;;1.90;;
77984;SDS011;67177;47.240;-1.546;2023-04-01T20:07:55;8.70;;;1.83;;
77984;SDS011;67177;47.240;-1.546;2023-04-01T20:13:17;8.20;;;1.77;;
77984;SDS011;67177;47.240;-1.546;2023-04-01T20:15:58;5.57;;;1.40;;
77984;SDS011;67177;47.240;-1.546;2023-04-01T20:18:34;9.02;;;2.03;;
77984;SDS011;67177;47.240;-1.546;2023-04-01T20:21:44;12.70;;;1.90;;
77984;SDS011;67177;47.240;-1.546;2023-04-01T20:26:50;5.53;;;1.17;;
77984;SDS011;67177;47.240;-1.546;2023-04-01T20:29:35;11.23;;;1.67;;
77984;SDS011;67177;47.240;-1.546;2023-04-01T20:35:06;8.07;;;1.65;;
77984;SDS011;67177;47.240;-1.546;2023-04-01T20:37:49;7.53;;;1.70;;
77984;SDS011;67177;47.240;-1.546;2023-04-01T20:40:33;7.45;;;1.77;;
77984;SDS011;67177;47.240;-1.546;2023-04-01T20:51:32;6.35;;;1.52;;
77984;SDS011;67177;47.240;-1.546;2023-04-01T20:59:53;5.55;;;1.50;;
77984;SDS011;67177;47.240;-1.546;2023-04-01T21:14:29;8.68;;;1.90;;
77984;SDS011;67177;47.240;-1.546;2023-04-01T21:30:54;7.95;;;1.67;;
77984;SDS011;67177;47.240;-1.546;2023-04-01T21:50:17;7.78;;;1.45;;
77984;SDS011;67177;47.240;-1.546;2023-04-01T21:56:28;5.63;;;1.15;;
77984;SDS011;67177;47.240;-1.546;2023-04-01T22:08:32;5.10;;;1.10;;
77984;SDS011;67177;47.240;-1.546;2023-04-01T22:13:54;4.88;;;0.90;;
77984;SDS011;67177;47.240;-1.546;2023-04-01T22:16:27;3.33;;;0.90;;
77984;SDS011;67177;47.240;-1.546;2023-04-01T22:19:35;4.63;;;0.90;;
77984;SDS011;67177;47.240;-1.546;2023-04-01T22:25:22;4.68;;;1.05;;
77984;SDS011;67177;47.240;-1.546;2023-04-01T22:27:49;4.57;;;0.90;;
77984;SDS011;67177;47.240;-1.546;2023-04-01T22:30:27;3.92;;;1.02;;
77984;SDS011;67177;47.240;-1.546;2023-04-01T22:35:38;8.95;;;1.10;;
77984;SDS011;67177;47.240;-1.546;2023-04-01T22:43:48;5.97;;;1.02;;
77984;SDS011;67177;47.240;-1.546;2023-04-01T22:49:01;4.70;;;1.00;;
77984;SDS011;67177;47.240;-1.546;2023-04-01T22:51:52;5.03;;;1.20;;
77984;SDS011;67177;47.240;-1.546;2023-04-01T22:54:51;4.05;;;1.00;;
77984;SDS011;67177;47.240;-1.546;2023-04-01T23:00:06;5.93;;;1.02;;
77984;SDS011;67177;47.240;-1.546;2023-04-01T23:02:46;3.80;;;0.85;;
77984;SDS011;67177;47.240;-1.546;2023-04-01T23:05:26;4.50;;;0.80;;
77984;SDS011;67177;47.240;-1.546;2023-04-01T23:10:42;4.45;;;1.10;;
77984;SDS011;67177;47.240;-1.546;2023-04-01T23:13:21;4.80;;;0.85;;
77984;SDS011;67177;47.240;-1.546;2023-04-01T23:15:52;4.32;;;1.10;;
77984;SDS011;67177;47.240;-1.546;2023-04-01T23:21:09;6.57;;;1.10;;
77984;SDS011;67177;47.240;-1.546;2023-04-01T23:26:23;3.75;;;0.90;;
77984;SDS011;67177;47.240;-1.546;2023-04-01T23:29:01;4.88;;;1.00;;
77984;SDS011;67177;47.240;-1.546;2023-04-01T23:36:37;4.40;;;0.88;;
77984;SDS011;67177;47.240;-1.546;2023-04-01T23:39:13;4.47;;;0.90;;
77984;SDS011;67177;47.240;-1.546;2023-04-01T23:41:44;8.48;;;1.30;;
77984;SDS011;67177;47.240;-1.546;2023-04-01T23:44:11;4.53;;;1.20;;
77984;SDS011;67177;47.240;-1.546;2023-04-01T23:46:39;3.38;;;0.88;;
77984;SDS011;67177;47.240;-1.546;2023-04-01T23:49:10;4.13;;;0.80;;
77984;SDS011;67177;47.240;-1.546;2023-04-01T23:51:48;4.75;;;0.85;;
77984;SDS011;67177;47.240;-1.546;2023-04-01T23:54:23;4.10;;;0.88;;
77984;SDS011;67177;47.240;-1.546;2023-04-01T23:56:53;3.43;;;0.73;;
77984;SDS011;67177;47.240;-1.546;2023-04-01T23:59:27;3.33;;;0.90;;
